Time;durP1;ratioP1;P1;durP2;ratioP2;P2;SDS_P1;SDS_P2;PMS_P1;PMS_P2;Temp;Humidity;BMP_temperature;BMP_pressure;BME280_temperature;BME280_humidity;BME280_pressure;Samples;Min_cycle;Max_cycle;Signal;HPM_P1;HPM_P2
2022/04/19 00:01:44;;;;;;;8.90;4.90;;;;;;;2.90;76.44;99023.35;109208;1277;22513;-54
2022/04/19 00:04:12;;;;;;;8.30;4.80;;;;;;;2.85;76.75;99025.89;109163;1277;22461;-54
2022/04/19 00:06:41;;;;;;;6.80;4.10;;;;;;;2.84;76.93;99025.08;109561;1272;22398;-54
2022/04/19 00:09:09;;;;;;;6.80;4.20;;;;;;;2.83;77.19;99022.10;109540;1274;22506;-54
2022/04/19 00:11:38;;;;;;;6.80;4.10;;;;;;;2.82;77.15;99025.70;109550;1274;22426;-54
2022/04/19 00:14:08;;;;;;;7.60;3.80;;;;;;;2.82;77.48;99021.20;109594;1273;22643;-54
2022/04/19 00:16:36;;;;;;;5.60;4.40;;;;;;;2.80;77.71;99021.34;109589;1274;22410;-54
2022/04/19 00:19:04;;;;;;;8.70;4.70;;;;;;;2.80;78.03;99017.41;109554;1272;22514;-54
2022/04/19 00:21:33;;;;;;;8.60;5.00;;;;;;;2.79;78.24;99014.55;109519;1274;22541;-54
2022/04/19 00:24:01;;;;;;;7.10;4.10;;;;;;;2.79;78.44;99019.81;109553;1274;22342;-55
2022/04/19 00:26:31;;;;;;;5.30;3.70;;;;;;;2.77;78.85;99019.41;109577;1274;22390;-54
2022/04/19 00:29:00;;;;;;;4.90;3.10;;;;;;;2.73;78.93;99018.13;109593;1274;23054;-55
2022/04/19 00:31:28;;;;;;;8.00;4.10;;;;;;;2.72;79.10;99012.73;109591;1274;22383;-54
2022/04/19 00:33:57;;;;;;;5.70;3.50;;;;;;;2.71;79.35;99014.23;109546;1274;22407;-54
2022/04/19 00:36:30;;;;;;;6.70;3.10;;;;;;;2.68;79.58;99013.66;109573;1274;22584;-54
2022/04/19 00:39:00;;;;;;;4.90;3.60;;;;;;;2.67;79.75;99008.45;109558;1274;22404;-54
2022/04/19 00:41:28;;;;;;;4.90;3.10;;;;;;;2.65;80.04;99008.22;109577;1274;22448;-54
2022/04/19 00:43:56;;;;;;;4.90;2.80;;;;;;;2.60;80.41;99011.66;109560;1274;22406;-54
2022/04/19 00:46:24;;;;;;;4.90;3.70;;;;;;;2.53;80.63;99008.48;109588;1274;22492;-54
2022/04/19 00:49:12;;;;;;;3.90;3.10;;;;;;;2.47;80.96;99012.36;109365;1274;23522;-54
2022/04/19 00:51:41;;;;;;;4.70;3.50;;;;;;;2.45;81.15;99012.63;109451;1274;23510;-54
2022/04/19 00:54:09;;;;;;;5.00;3.70;;;;;;;2.44;81.43;99011.04;109570;1274;23318;-54
2022/04/19 00:56:53;;;;;;;4.30;3.40;;;;;;;2.39;81.84;99012.64;109421;1274;22410;-54
2022/04/19 00:59:21;;;;;;;5.30;4.10;;;;;;;2.36;81.94;99017.00;109573;1274;22472;-54
2022/04/19 01:02:00;;;;;;;6.50;4.60;;;;;;;2.34;82.25;99015.56;109578;1274;22518;-57
2022/04/19 01:04:30;;;;;;;6.40;4.60;;;;;;;2.33;82.53;99019.13;109348;1274;22531;-54
2022/04/19 01:06:59;;;;;;;6.40;5.10;;;;;;;2.31;82.84;99015.75;109399;1274;22412;-54
2022/04/19 01:09:28;;;;;;;5.50;4.90;;;;;;;2.30;82.99;99017.80;109280;1274;22440;-54
2022/04/19 01:14:44;;;;;;;6.20;5.30;;;;;;;2.23;83.24;99019.20;109169;1277;22459;-54
2022/04/19 01:17:13;;;;;;;6.20;4.80;;;;;;;2.19;83.25;99018.11;109598;1274;22622;-54
2022/04/19 01:19:41;;;;;;;6.10;4.50;;;;;;;2.16;83.48;99017.02;109244;1274;23246;-54
2022/04/19 01:22:14;;;;;;;4.90;4.10;;;;;;;2.14;83.62;99012.37;109475;1274;23362;-54
2022/04/19 01:24:44;;;;;;;5.30;3.60;;;;;;;2.10;83.44;99012.67;109251;1274;22433;-54
2022/04/19 01:27:16;;;;;;;5.20;4.00;;;;;;;2.06;83.50;99015.16;109378;1274;22480;-54
2022/04/19 01:29:46;;;;;;;4.70;3.70;;;;;;;2.04;83.62;99011.20;109579;1274;22530;-54
2022/04/19 01:32:15;;;;;;;5.10;3.80;;;;;;;2.03;83.78;99008.69;109602;1274;23132;-54
2022/04/19 01:35:11;;;;;;;4.40;3.40;;;;;;;2.02;83.75;99009.85;109287;1274;22234;-54
2022/04/19 01:37:46;;;;;;;6.60;4.00;;;;;;;2.01;83.65;99006.33;109397;1274;22948;-54
2022/04/19 01:40:18;;;;;;;4.30;3.70;;;;;;;1.99;83.78;99009.10;109345;1274;22500;-54
2022/04/19 01:43:01;;;;;;;4.50;3.10;;;;;;;1.98;83.94;99010.96;109478;1274;22447;-54
2022/04/19 01:45:42;;;;;;;4.60;3.40;;;;;;;1.98;83.89;99006.88;109376;1276;22519;-54
2022/04/19 01:48:16;;;;;;;3.50;2.90;;;;;;;1.98;84.00;99006.13;109390;1274;22407;-54
2022/04/19 01:50:45;;;;;;;4.20;3.20;;;;;;;1.96;83.97;99005.77;109552;1274;22405;-54
2022/04/19 01:53:14;;;;;;;4.00;3.20;;;;;;;1.95;83.90;99008.09;109399;1274;22385;-54
2022/04/19 01:55:44;;;;;;;4.60;3.30;;;;;;;1.92;84.12;99000.27;109372;1277;22407;-54
2022/04/19 01:58:33;;;;;;;4.50;3.10;;;;;;;1.88;83.94;99000.38;109254;1274;22425;-54
2022/04/19 02:01:01;;;;;;;4.20;2.90;;;;;;;1.84;84.20;98998.64;109362;1274;22465;-54
2022/04/19 02:03:30;;;;;;;6.20;3.40;;;;;;;1.82;84.17;98995.22;109417;1274;22488;-54
2022/04/19 02:05:59;;;;;;;5.20;3.00;;;;;;;1.81;84.58;98994.31;107773;1277;24240;-53
2022/04/19 02:08:27;;;;;;;4.30;3.00;;;;;;;1.77;84.60;98990.23;105238;1274;24033;-56
2022/04/19 02:10:56;;;;;;;4.60;3.50;;;;;;;1.74;84.56;98984.38;105191;1274;22599;-56
2022/04/19 02:13:25;;;;;;;4.90;3.20;;;;;;;1.73;84.74;98984.27;109300;1277;23276;-54
2022/04/19 02:16:08;;;;;;;6.90;4.00;;;;;;;1.70;84.90;98981.94;109566;1272;23074;-54
2022/04/19 02:18:57;;;;;;;5.20;3.60;;;;;;;1.68;85.04;98978.31;109398;1274;22555;-54
2022/04/19 02:21:26;;;;;;;4.10;2.90;;;;;;;1.66;85.15;98983.02;109408;1274;23349;-54
2022/04/19 02:24:11;;;;;;;4.60;2.90;;;;;;;1.65;85.31;98984.06;109541;1274;22551;-54
2022/04/19 02:26:40;;;;;;;6.30;3.70;;;;;;;1.65;85.41;98986.83;109381;1274;22423;-54
2022/04/19 02:29:11;;;;;;;7.90;3.30;;;;;;;1.65;85.25;98983.61;109319;1277;22478;-54
2022/04/19 02:31:45;;;;;;;8.80;4.10;;;;;;;1.64;85.55;98980.52;109400;1274;22434;-54
2022/04/19 02:34:33;;;;;;;6.60;3.60;;;;;;;1.63;85.59;98978.66;109384;1274;22461;-55
2022/04/19 02:37:02;;;;;;;7.10;3.90;;;;;;;1.63;85.74;98977.70;109201;1277;22380;-54
2022/04/19 02:39:30;;;;;;;8.40;4.10;;;;;;;1.63;85.62;98972.54;109492;1276;22557;-54
2022/04/19 02:41:58;;;;;;;7.30;4.20;;;;;;;1.65;85.86;98973.41;109494;1274;22415;-54
2022/04/19 02:44:27;;;;;;;9.60;3.70;;;;;;;1.65;85.87;98969.39;109379;1274;23109;-54
2022/04/19 02:47:04;;;;;;;;;;;;;;;1.65;85.92;98966.54;109379;1276;22430;-54
2022/04/19 02:49:34;;;;;;;5.40;3.50;;;;;;;1.66;86.05;98972.11;109346;1274;22458;-54
2022/04/19 02:52:22;;;;;;;4.80;3.40;;;;;;;1.68;85.95;98969.96;109412;1274;22636;-55
2022/04/19 02:54:53;;;;;;;8.40;3.70;;;;;;;1.68;85.86;98968.23;109375;1274;22512;-54
2022/04/19 02:57:21;;;;;;;7.00;3.30;;;;;;;1.69;86.10;98966.41;109219;1277;22559;-54
2022/04/19 02:59:50;;;;;;;4.90;3.50;;;;;;;1.69;85.96;98965.30;109398;1274;23559;-54
2022/04/19 03:02:20;;;;;;;5.70;3.50;;;;;;;1.69;86.25;98967.11;109395;1272;22490;-55
2022/04/19 03:04:48;;;;;;;4.00;2.80;;;;;;;1.66;85.90;98963.19;109531;1274;22444;-54
2022/04/19 03:07:16;;;;;;;7.80;2.80;;;;;;;1.63;86.33;98964.16;109456;1274;23352;-54
2022/04/19 03:09:48;;;;;;;6.20;3.30;;;;;;;1.62;86.25;98962.38;109367;1274;22464;-54
2022/04/19 03:12:17;;;;;;;4.00;2.40;;;;;;;1.62;86.43;98962.23;109382;1274;22450;-54
2022/04/19 03:14:58;;;;;;;4.50;2.50;;;;;;;1.62;86.36;98959.29;109364;1274;23254;-54
2022/04/19 03:17:26;;;;;;;3.80;2.90;;;;;;;1.62;86.49;98960.15;109571;1274;22265;-54
2022/04/19 03:19:54;;;;;;;4.50;2.40;;;;;;;1.63;86.49;98963.24;109351;1277;22453;-54
2022/04/19 03:22:23;;;;;;;2.90;2.40;;;;;;;1.62;86.51;98961.80;109404;1276;22417;-54
2022/04/19 03:27:51;;;;;;;2.90;2.10;;;;;;;1.60;86.81;98967.27;109397;1274;22413;-54
2022/04/19 03:30:20;;;;;;;2.50;2.20;;;;;;;1.60;86.77;98969.66;109387;1274;22439;-55
2022/04/19 03:32:53;;;;;;;4.10;3.40;;;;;;;1.60;86.58;98971.19;109387;1274;23445;-54
2022/04/19 03:35:21;;;;;;;5.10;2.90;;;;;;;1.61;86.75;98972.67;109368;1274;22473;-54
2022/04/19 03:37:56;;;;;;;3.10;2.50;;;;;;;1.62;86.72;98973.63;109329;1276;22378;-54
2022/04/19 03:40:25;;;;;;;3.40;2.80;;;;;;;1.63;86.76;98973.28;109301;1276;22254;-54
2022/04/19 03:42:54;;;;;;;3.40;2.70;;;;;;;1.65;86.79;98971.17;109384;1275;22558;-54
2022/04/19 03:45:43;;;;;;;2.50;2.20;;;;;;;1.67;87.01;98972.04;109413;1274;22428;-56
2022/04/19 03:48:15;;;;;;;3.20;2.70;;;;;;;1.69;87.03;98973.18;109457;1274;22525;-56
2022/04/19 03:50:44;;;;;;;2.30;1.80;;;;;;;1.71;86.99;98975.24;109360;1277;22485;-56
2022/04/19 03:53:14;;;;;;;2.70;2.30;;;;;;;1.72;87.00;98976.95;109569;1274;22394;-56
2022/04/19 03:55:42;;;;;;;3.90;3.00;;;;;;;1.72;86.98;98979.80;109362;1277;22413;-56
2022/04/19 03:58:10;;;;;;;3.50;2.30;;;;;;;1.71;86.86;98979.66;109373;1274;22533;-56
2022/04/19 04:00:40;;;;;;;3.40;2.40;;;;;;;1.71;87.02;98971.98;109388;1274;22373;-56
2022/04/19 04:03:09;;;;;;;3.80;2.60;;;;;;;1.72;87.10;98970.04;109387;1274;23473;-56
2022/04/19 04:05:41;;;;;;;3.30;2.50;;;;;;;1.74;87.30;98964.17;109374;1274;23422;-56
2022/04/19 04:08:29;;;;;;;4.10;3.20;;;;;;;1.78;87.22;98960.11;109392;1274;22218;-56
2022/04/19 04:10:58;;;;;;;3.20;2.40;;;;;;;1.79;87.28;98959.08;109375;1274;23019;-56
2022/04/19 04:13:50;;;;;;;3.20;2.20;;;;;;;1.80;87.10;98955.85;109344;1277;23064;-55
2022/04/19 04:16:19;;;;;;;3.60;2.20;;;;;;;1.82;87.12;98948.86;107429;1274;25396;-54
2022/04/19 04:18:47;;;;;;;3.60;2.40;;;;;;;1.84;87.14;98944.80;105213;1274;24008;-53
2022/04/19 04:21:16;;;;;;;3.80;2.70;;;;;;;1.87;87.32;98937.55;109291;1274;23253;-54
2022/04/19 04:23:44;;;;;;;5.30;3.70;;;;;;;1.89;87.40;98935.12;109370;1274;23304;-55
2022/04/19 04:26:15;;;;;;;3.00;2.30;;;;;;;1.92;87.74;98933.95;109373;1274;22407;-54
2022/04/19 04:29:03;;;;;;;4.40;2.90;;;;;;;1.97;87.85;98931.98;109407;1274;22511;-55
2022/04/19 04:31:32;;;;;;;3.60;2.60;;;;;;;2.01;87.64;98929.02;109498;1274;23283;-54
2022/04/19 04:34:01;;;;;;;4.60;2.70;;;;;;;2.06;87.79;98925.70;109394;1274;22423;-55
2022/04/19 04:36:49;;;;;;;3.50;2.70;;;;;;;2.11;87.94;98936.80;109399;1274;22725;-54
2022/04/19 04:39:19;;;;;;;9.90;3.20;;;;;;;2.14;87.75;98938.31;109394;1276;22531;-54
2022/04/19 04:42:08;;;;;;;4.50;3.30;;;;;;;2.17;87.68;98938.70;109113;1277;22527;-54
2022/04/19 04:44:54;;;;;;;5.10;3.20;;;;;;;2.19;87.70;98941.70;109431;1276;23235;-54
2022/04/19 04:50:09;;;;;;;4.30;3.50;;;;;;;2.24;87.82;98926.45;109485;1275;23052;-54
2022/04/19 04:52:38;;;;;;;5.10;3.10;;;;;;;2.27;87.78;98923.75;109309;1277;23733;-55
2022/04/19 04:55:07;;;;;;;5.40;3.50;;;;;;;2.30;87.69;98925.45;109346;1277;23173;-54
2022/04/19 04:57:59;;;;;;;4.70;2.90;;;;;;;2.33;87.59;98927.90;109348;1276;22489;-55
2022/04/19 05:00:28;;;;;;;3.70;3.30;;;;;;;2.37;87.83;98923.79;109349;1275;23141;-55
2022/04/19 05:02:59;;;;;;;4.80;3.30;;;;;;;2.42;87.92;98922.51;109376;1276;23139;-54
2022/04/19 05:05:47;;;;;;;;;;;;;;;2.48;87.68;98919.63;109355;1276;22498;-54
2022/04/19 05:08:18;;;;;;;4.00;2.90;;;;;;;2.54;87.61;98923.48;109303;1277;22450;-55
2022/04/19 05:11:06;;;;;;;3.50;3.00;;;;;;;2.58;87.47;98931.79;109327;1276;22426;-54
2022/04/19 05:13:35;;;;;;;4.60;2.60;;;;;;;2.62;87.20;98929.30;109373;1276;22419;-54
2022/04/19 05:16:04;;;;;;;2.80;2.30;;;;;;;2.64;87.07;98934.12;109383;1276;22515;-55
2022/04/19 05:18:34;;;;;;;4.30;2.70;;;;;;;2.69;87.27;98926.77;109418;1276;22500;-54
2022/04/19 05:21:02;;;;;;;4.30;2.60;;;;;;;2.75;87.13;98927.73;109367;1276;22684;-55
2022/04/19 05:23:33;;;;;;;4.10;2.60;;;;;;;2.80;86.88;98930.70;109364;1275;22415;-55
2022/04/19 05:26:02;;;;;;;3.40;2.70;;;;;;;2.85;86.84;98931.23;109362;1276;22438;-55
2022/04/19 05:28:30;;;;;;;3.20;2.30;;;;;;;2.92;86.71;98932.98;109370;1277;22529;-55
2022/04/19 05:31:18;;;;;;;3.20;2.40;;;;;;;2.99;86.33;98931.71;109362;1276;23211;-54
2022/04/19 05:33:46;;;;;;;2.70;2.20;;;;;;;3.03;85.91;98928.97;109343;1277;22501;-55
2022/04/19 05:36:15;;;;;;;3.40;2.30;;;;;;;3.05;85.35;98932.41;109449;1275;22399;-54
2022/04/19 05:39:03;;;;;;;;;;;;;;;3.07;85.30;98939.14;109342;1277;22518;-55
2022/04/19 05:41:35;;;;;;;5.20;4.30;;;;;;;3.10;85.27;98942.52;109313;1277;23500;-55
2022/04/19 05:44:03;;;;;;;6.00;3.60;;;;;;;3.13;85.39;98945.05;109269;1277;23347;-55
2022/04/19 05:46:31;;;;;;;3.80;2.70;;;;;;;3.17;85.29;98944.29;109351;1277;22483;-54
2022/04/19 05:49:00;;;;;;;6.50;4.00;;;;;;;3.22;85.13;98943.66;109367;1276;22411;-55
2022/04/19 05:51:29;;;;;;;3.40;2.90;;;;;;;3.25;84.99;98935.64;109340;1276;23228;-55
2022/04/19 05:53:58;;;;;;;4.70;3.20;;;;;;;3.29;84.75;98938.66;109319;1277;22493;-54
2022/04/19 05:56:26;;;;;;;5.10;3.60;;;;;;;3.32;84.62;98944.67;109240;1277;22397;-54
2022/04/19 05:59:15;;;;;;;5.80;3.60;;;;;;;3.36;84.17;98952.86;109350;1277;23311;-55
2022/04/19 06:07:45;;;;;;;6.50;3.40;;;;;;;3.31;83.78;98965.07;109361;1277;22280;-55
2022/04/19 06:10:18;;;;;;;6.80;3.50;;;;;;;3.33;83.77;98966.11;109361;1277;22412;-54
2022/04/19 06:12:51;;;;;;;4.20;3.20;;;;;;;3.33;83.54;98963.27;109350;1277;23317;-55
2022/04/19 06:15:19;;;;;;;10.60;5.90;;;;;;;3.33;83.58;98957.98;109296;1276;22591;-54
2022/04/19 06:17:48;;;;;;;5.40;3.90;;;;;;;3.36;83.65;98949.99;109364;1276;23736;-55
2022/04/19 06:20:26;;;;;;;6.00;4.00;;;;;;;3.39;83.71;98947.84;109376;1277;23228;-54
2022/04/19 06:22:54;;;;;;;5.70;3.90;;;;;;;3.44;83.77;98957.46;109324;1277;23273;-54
2022/04/19 06:25:42;;;;;;;6.00;4.10;;;;;;;3.44;83.19;98964.95;109343;1277;22478;-54
2022/04/19 06:28:11;;;;;;;8.20;6.60;;;;;;;3.44;83.41;98964.63;109331;1277;22390;-55
2022/04/19 06:31:02;;;;;;;6.80;5.60;;;;;;;3.45;83.18;98966.35;109370;1276;22410;-54
2022/04/19 06:33:50;;;;;;;6.50;5.80;;;;;;;3.48;83.04;98961.33;109348;1277;22478;-54
2022/04/19 06:36:20;;;;;;;6.30;4.20;;;;;;;3.49;82.89;98953.67;109336;1276;23149;-55
2022/04/19 06:38:48;;;;;;;6.80;4.70;;;;;;;3.51;82.96;98953.58;109334;1277;23373;-55
2022/04/19 06:41:17;;;;;;;6.40;3.70;;;;;;;3.57;83.31;98947.34;109372;1277;23513;-55
2022/04/19 06:43:45;;;;;;;5.70;4.40;;;;;;;3.65;83.40;98943.24;109353;1276;22442;-54
2022/04/19 06:46:20;;;;;;;5.30;3.80;;;;;;;3.70;82.88;98940.86;109347;1277;22525;-54
2022/04/19 06:48:58;;;;;;;5.30;3.70;;;;;;;3.74;82.80;98943.49;109339;1276;22436;-55
2022/04/19 06:51:36;;;;;;;5.30;3.90;;;;;;;3.79;82.77;98931.00;109350;1276;22420;-54
2022/04/19 06:54:15;;;;;;;;;;;;;;;3.83;82.52;98929.83;109278;1277;22575;-55
2022/04/19 06:56:50;;;;;;;6.00;3.60;;;;;;;3.86;82.29;98931.86;106461;1277;25616;-54
2022/04/19 06:59:19;;;;;;;5.00;4.00;;;;;;;3.90;82.04;98927.07;109449;1276;23054;-55
2022/04/19 07:01:47;;;;;;;6.10;4.70;;;;;;;3.91;81.91;98919.25;109406;1277;22491;-54
2022/04/19 07:04:41;;;;;;;10.20;5.20;;;;;;;3.96;82.07;98914.96;109133;1277;22270;-55
2022/04/19 07:07:12;;;;;;;4.50;4.00;;;;;;;4.04;82.04;98911.07;109330;1277;22430;-54
2022/04/19 07:10:03;;;;;;;5.80;4.30;;;;;;;4.10;81.57;98906.96;109384;1276;22968;-54
2022/04/19 07:12:32;;;;;;;5.50;4.20;;;;;;;4.18;81.68;98908.52;109341;1277;22405;-54
2022/04/19 07:15:26;;;;;;;5.90;4.30;;;;;;;4.28;81.50;98900.46;109348;1277;22422;-54
2022/04/19 07:17:57;;;;;;;5.50;3.80;;;;;;;4.38;81.35;98897.58;109363;1276;22798;-55
2022/04/19 07:28:46;;;;;;;7.80;4.90;;;;;;;4.60;79.09;98923.80;109373;1276;22417;-54
2022/04/19 07:31:14;;;;;;;4.90;3.70;;;;;;;4.56;79.10;98927.23;109395;1277;22496;-54
2022/04/19 07:34:03;;;;;;;7.80;4.90;;;;;;;4.53;78.88;98931.34;109254;1275;23030;-55
2022/04/19 07:36:35;;;;;;;6.20;4.00;;;;;;;4.51;78.88;98933.27;106898;1277;26291;-54
2022/04/19 07:39:06;;;;;;;9.30;3.90;;;;;;;4.52;78.92;98929.16;105078;1274;23976;-55
2022/04/19 07:41:45;;;;;;;6.30;4.40;;;;;;;4.52;78.87;98932.06;109400;1277;23837;-55
2022/04/19 07:44:15;;;;;;;6.10;4.50;;;;;;;4.53;78.97;98923.71;109365;1276;22493;-55
2022/04/19 07:46:44;;;;;;;6.40;4.00;;;;;;;4.54;78.60;98924.23;109420;1276;22457;-55
2022/04/19 07:49:13;;;;;;;5.20;3.60;;;;;;;4.54;78.18;98919.26;109355;1277;22566;-55
2022/04/19 07:51:41;;;;;;;5.60;4.20;;;;;;;4.56;78.79;98919.85;109475;1276;22453;-55
2022/04/19 07:54:09;;;;;;;10.80;3.40;;;;;;;4.58;78.69;98924.83;109190;1274;257654;-55
2022/04/19 07:58:31;;;;;;;6.40;3.70;;;;;;;4.64;78.13;98942.39;101964;1308;545235;-54
2022/04/19 08:01:00;;;;;;;5.40;3.70;;;;;;;4.61;78.22;98946.63;108598;1283;23212;-55
2022/04/19 08:03:28;;;;;;;6.00;4.10;;;;;;;4.60;78.31;98946.52;108424;1284;22423;-55
2022/04/19 08:05:56;;;;;;;7.70;4.10;;;;;;;4.58;77.91;98939.94;108591;1284;23252;-55
2022/04/19 08:08:26;;;;;;;4.50;3.70;;;;;;;4.54;78.01;98932.70;108524;1283;22429;-55
2022/04/19 08:11:14;;;;;;;4.70;3.30;;;;;;;4.51;78.21;98929.17;108353;1283;168137;-55
2022/04/19 08:13:42;;;;;;;5.70;3.90;;;;;;;4.50;77.92;98929.69;108583;1282;22374;-55
2022/04/19 08:16:12;;;;;;;7.90;4.90;;;;;;;4.48;78.06;98928.18;108871;1281;22500;-55
2022/04/19 08:19:00;;;;;;;;;;;;;;;4.47;78.09;98922.66;108851;1282;22471;-54
2022/04/19 08:21:48;;;;;;;7.50;5.50;;;;;;;4.48;78.32;98920.14;108643;1283;22419;-55
2022/04/19 08:24:17;;;;;;;9.90;8.00;;;;;;;4.48;78.41;98913.50;108638;1283;22402;-55
2022/04/19 08:26:53;;;;;;;8.10;7.00;;;;;;;4.49;78.72;98912.29;108610;1283;22252;-54
2022/04/19 08:29:21;;;;;;;7.80;4.60;;;;;;;4.48;78.44;98903.04;108837;1281;23351;-55
2022/04/19 08:31:49;;;;;;;6.10;4.50;;;;;;;4.48;78.57;98898.52;108619;1281;22421;-55
2022/04/19 08:34:19;;;;;;;7.20;4.80;;;;;;;4.49;78.61;98901.94;108609;1283;23195;-55
2022/04/19 08:36:47;;;;;;;8.10;5.70;;;;;;;4.52;78.83;98900.28;105818;1283;22592;-54
2022/04/19 08:39:17;;;;;;;6.40;5.30;;;;;;;4.57;79.19;98907.96;104666;1282;25407;-55
2022/04/19 08:41:46;;;;;;;8.60;4.70;;;;;;;4.61;78.64;98901.25;108556;1283;23334;-55
2022/04/19 08:44:15;;;;;;;7.10;5.40;;;;;;;4.62;78.79;98895.77;108679;1281;22524;-55
2022/04/19 08:46:44;;;;;;;7.00;4.70;;;;;;;4.64;78.81;98891.71;108767;1282;22486;-55
2022/04/19 08:49:12;;;;;;;7.30;4.20;;;;;;;4.67;78.81;98894.41;108704;1282;22427;-55
2022/04/19 08:52:00;;;;;;;;;;;;;;;4.70;78.71;98895.40;108706;1283;22450;-55
2022/04/19 08:57:32;;;;;;;4.90;3.90;;;;;;;4.73;78.41;98892.78;108727;1282;22419;-55
2022/04/19 09:00:03;;;;;;;6.70;4.70;;;;;;;4.74;78.54;98886.66;108782;1282;22375;-55
2022/04/19 09:02:33;;;;;;;8.10;4.00;;;;;;;4.76;78.31;98891.92;108718;1283;22235;-55
2022/04/19 09:05:26;;;;;;;5.00;4.10;;;;;;;4.77;78.10;98893.34;108346;1283;22602;-55
2022/04/19 09:07:57;;;;;;;6.80;4.40;;;;;;;4.79;78.48;98896.88;108774;1282;22434;-55
2022/04/19 09:10:36;;;;;;;5.80;3.90;;;;;;;4.81;78.34;98895.65;108617;1283;22520;-55
2022/04/19 09:13:05;;;;;;;5.80;4.70;;;;;;;4.83;77.99;98899.52;108850;1282;23242;-55
2022/04/19 09:15:43;;;;;;;6.00;4.10;;;;;;;4.84;77.86;98895.77;108744;1282;22516;-55
2022/04/19 09:18:30;;;;;;;5.70;4.10;;;;;;;4.86;77.97;98892.58;108740;1282;22415;-55
2022/04/19 09:20:59;;;;;;;5.00;3.70;;;;;;;4.87;77.74;98892.77;108650;1282;22547;-56
2022/04/19 09:23:31;;;;;;;6.30;4.80;;;;;;;4.90;78.00;98895.20;108765;1283;22510;-55
2022/04/19 09:26:19;;;;;;;5.60;3.80;;;;;;;4.94;78.13;98891.45;108852;1282;22418;-55
2022/04/19 09:29:26;;;;;;;4.40;3.10;;;;;;;4.96;78.00;98893.23;109458;1274;23119;-55
2022/04/19 09:32:01;;;;;;;4.60;3.40;;;;;;;5.01;78.01;98902.89;109560;1273;22243;-55
2022/04/19 09:34:33;;;;;;;6.60;3.50;;;;;;;5.04;77.72;98912.64;109510;1274;22489;-55
2022/04/19 09:37:11;;;;;;;5.00;3.10;;;;;;;5.04;77.55;98906.15;109523;1274;22422;-55
2022/04/19 09:39:40;;;;;;;4.60;3.30;;;;;;;5.04;77.65;98901.73;109534;1273;22496;-55
2022/04/19 09:42:15;;;;;;;4.80;3.00;;;;;;;5.08;77.81;98903.89;109526;1274;22571;-55
2022/04/19 09:44:44;;;;;;;6.20;3.60;;;;;;;5.13;77.91;98910.61;109547;1273;22494;-55
2022/04/19 09:47:12;;;;;;;4.50;3.20;;;;;;;5.17;77.88;98913.95;109474;1274;22523;-55
2022/04/19 09:49:48;;;;;;;4.30;3.50;;;;;;;5.21;77.32;98916.98;109581;1273;23094;-55
2022/04/19 09:52:22;;;;;;;6.50;3.50;;;;;;;5.22;76.90;98909.71;109491;1274;22592;-55
2022/04/19 09:55:05;;;;;;;5.30;3.60;;;;;;;5.20;76.94;98906.39;109455;1274;22340;-55
2022/04/19 09:57:37;;;;;;;4.50;2.70;;;;;;;5.23;76.98;98903.46;109483;1274;22475;-55
2022/04/19 10:00:17;;;;;;;5.80;2.80;;;;;;;5.24;77.03;98903.45;109509;1274;22418;-55
2022/04/19 10:08:21;;;;;;;4.10;2.50;;;;;;;5.40;76.48;98914.35;109395;1274;22327;-55
2022/04/19 10:10:51;;;;;;;4.40;3.30;;;;;;;5.46;76.44;98912.86;109484;1274;22481;-55
2022/04/19 10:13:23;;;;;;;3.50;2.60;;;;;;;5.52;76.52;98908.15;109547;1274;23065;-56
2022/04/19 10:16:12;;;;;;;3.90;2.70;;;;;;;5.60;76.55;98912.07;109503;1274;22496;-55
2022/04/19 10:18:41;;;;;;;4.70;3.20;;;;;;;5.67;76.61;98906.45;109511;1274;22461;-55
2022/04/19 10:21:31;;;;;;;5.20;3.40;;;;;;;5.76;75.85;98902.20;109414;1276;22444;-55
2022/04/19 10:24:11;;;;;;;5.80;4.00;;;;;;;5.81;75.33;98907.36;109214;1274;23294;-55
2022/04/19 10:26:45;;;;;;;4.20;3.20;;;;;;;5.83;75.54;98910.92;109512;1274;22449;-55
2022/04/19 10:29:26;;;;;;;3.50;2.60;;;;;;;5.87;75.39;98910.89;109464;1274;22623;-56
2022/04/19 10:31:55;;;;;;;4.20;2.60;;;;;;;5.92;75.44;98908.64;109527;1274;22518;-55
2022/04/19 10:34:26;;;;;;;4.40;2.60;;;;;;;5.95;74.90;98911.43;109505;1274;22504;-55
2022/04/19 10:36:57;;;;;;;5.60;2.40;;;;;;;5.95;75.07;98918.70;109507;1274;22555;-55
2022/04/19 10:39:27;;;;;;;10.60;6.20;;;;;;;6.00;75.08;98922.73;109477;1274;22497;-56
2022/04/19 10:41:59;;;;;;;29.60;17.80;;;;;;;6.03;74.30;98925.56;109515;1274;22431;-55
2022/04/19 10:44:48;;;;;;;33.40;21.60;;;;;;;6.05;74.25;98920.50;109464;1274;22512;-55
2022/04/19 10:47:20;;;;;;;6.20;3.90;;;;;;;6.08;74.37;98917.95;109496;1274;22420;-57
2022/04/19 10:49:58;;;;;;;16.50;11.90;;;;;;;6.17;74.39;98913.56;109449;1274;22430;-57
2022/04/19 10:52:36;;;;;;;7.50;5.60;;;;;;;6.25;74.06;98912.46;109383;1276;23154;-57
2022/04/19 10:55:06;;;;;;;5.10;3.60;;;;;;;6.31;74.10;98909.33;109491;1274;23194;-57
2022/04/19 11:00:35;;;;;;;6.80;4.00;;;;;;;6.52;73.66;98905.21;109488;1274;22404;-57
2022/04/19 11:03:26;;;;;;;7.40;6.40;;;;;;;6.59;73.27;98906.47;109569;1273;22653;-57
2022/04/19 11:05:56;;;;;;;4.70;3.50;;;;;;;6.65;72.86;98905.52;109390;1274;22417;-57
2022/04/19 11:08:24;;;;;;;7.90;6.20;;;;;;;6.65;72.46;98907.52;109546;1272;22552;-57
2022/04/19 11:11:06;;;;;;;5.80;4.70;;;;;;;6.65;72.16;98907.52;109472;1274;23411;-57
2022/04/19 11:13:35;;;;;;;;;;;;;;;6.65;71.96;98911.04;109478;1274;22450;-57
2022/04/19 11:16:13;;;;;;;4.30;3.30;;;;;;;6.69;71.60;98911.48;107922;1274;22558;-55
2022/04/19 11:18:41;;;;;;;3.20;2.60;;;;;;;6.72;71.59;98920.04;109568;1274;22247;-55
2022/04/19 11:21:48;;;;;;;9.90;7.40;;;;;;;6.76;71.43;98913.67;109378;1274;22390;-55
2022/04/19 11:24:54;;;;;;;15.20;12.00;;;;;;;6.75;71.31;98915.64;109420;1274;22375;-56
2022/04/19 11:27:44;;;;;;;7.30;4.60;;;;;;;6.70;71.29;98904.36;109570;1274;22385;-55
2022/04/19 11:30:15;;;;;;;8.50;6.60;;;;;;;6.69;71.61;98898.64;109567;1274;22516;-55
2022/04/19 11:32:48;;;;;;;9.30;6.10;;;;;;;6.70;71.59;98898.89;109546;1274;23351;-55
2022/04/19 11:35:17;;;;;;;4.50;3.30;;;;;;;6.70;71.58;98887.95;109495;1274;23602;-55
2022/04/19 11:37:47;;;;;;;7.80;6.50;;;;;;;6.72;72.22;98889.39;109575;1274;22405;-56
2022/04/19 11:48:50;;;;;;;5.70;5.20;;;;;;;6.83;71.34;98871.29;109530;1273;23356;-56
2022/04/19 11:51:20;;;;;;;4.40;2.60;;;;;;;6.89;71.76;98879.78;109421;1274;22418;-55
2022/04/19 11:53:52;;;;;;;3.80;2.40;;;;;;;6.96;71.13;98879.42;109410;1275;23260;-55
2022/04/19 11:56:23;;;;;;;4.80;4.10;;;;;;;6.98;71.31;98875.89;109558;1274;22558;-56
2022/04/19 11:58:52;;;;;;;9.70;8.50;;;;;;;7.02;70.81;98881.04;109339;1274;23244;-55
2022/04/19 12:01:20;;;;;;;12.60;9.00;;;;;;;7.02;70.50;98882.84;109510;1274;22556;-55
2022/04/19 12:04:11;;;;;;;;;;;;;;;7.02;70.47;98878.27;109609;1273;23228;-55
2022/04/19 12:06:39;;;;;;;5.60;3.30;;;;;;;6.99;70.43;98876.98;109540;1274;23343;-55
2022/04/19 12:09:07;;;;;;;5.50;3.00;;;;;;;6.97;70.21;98874.63;109181;1274;23359;-55
2022/04/19 12:11:35;;;;;;;8.90;6.60;;;;;;;6.94;70.40;98868.79;109399;1273;22449;-55
2022/04/19 12:14:04;;;;;;;106.20;72.10;;;;;;;6.94;70.26;98867.92;109600;1273;23632;-56
2022/04/19 12:16:57;;;;;;;17.90;13.50;;;;;;;6.97;70.39;98871.76;109551;1273;22387;-55
2022/04/19 12:19:39;;;;;;;7.80;5.60;;;;;;;7.00;70.17;98871.10;109615;1273;23285;-55
2022/04/19 12:22:27;;;;;;;16.60;12.00;;;;;;;7.03;69.77;98874.56;109500;1274;22398;-55
2022/04/19 12:24:58;;;;;;;15.60;11.40;;;;;;;7.07;69.82;98875.26;109582;1272;22414;-56
2022/04/19 12:27:37;;;;;;;8.70;5.90;;;;;;;7.14;69.84;98867.92;109610;1273;22319;-56
2022/04/19 12:30:11;;;;;;;61.40;45.40;;;;;;;7.21;69.55;98869.86;109590;1273;22414;-55
2022/04/19 12:32:54;;;;;;;16.70;10.80;;;;;;;7.27;69.40;98865.91;109586;1273;23308;-56
2022/04/19 12:35:34;;;;;;;37.30;28.00;;;;;;;7.32;69.43;98865.55;109752;1270;22409;-56
2022/04/19 12:38:16;;;;;;;14.10;10.20;;;;;;;7.39;69.76;98858.55;109738;1271;22398;-55
2022/04/19 12:40:44;;;;;;;32.90;22.90;;;;;;;7.47;69.67;98859.76;109725;1271;23289;-55
2022/04/19 12:43:14;;;;;;;18.30;12.90;;;;;;;7.53;69.38;98860.52;109723;1270;22384;-55
2022/04/19 12:45:43;;;;;;;17.10;11.60;;;;;;;7.58;69.12;98863.95;109743;1271;22458;-55
2022/04/19 12:48:21;;;;;;;5.30;3.00;;;;;;;7.64;68.87;98866.95;109745;1270;22250;-55
2022/04/19 12:51:03;;;;;;;16.50;12.90;;;;;;;7.67;68.38;98865.83;109720;1271;22616;-56